sensor_id;sensor_type;location;lat;lon;timestamp;P1;durP1;ratioP1;P2;durP2;ratioP2
75220;SDS011;63802;53.232;6.570;2023-02-28T00:01:12;7.18;;;2.42;;
75220;SDS011;63802;53.232;6.570;2023-02-28T00:03:38;4.05;;;1.92;;
75220;SDS011;63802;53.232;6.570;2023-02-28T00:06:04;4.35;;;1.92;;
75220;SDS011;63802;53.232;6.570;2023-02-28T00:08:30;6.43;;;2.08;;
75220;SDS011;63802;53.232;6.570;2023-02-28T00:10:59;5.60;;;2.13;;
75220;SDS011;63802;53.232;6.570;2023-02-28T00:13:26;4.15;;;1.85;;
75220;SDS011;63802;53.232;6.570;2023-02-28T00:16:02;8.68;;;2.40;;
75220;SDS011;63802;53.232;6.570;2023-02-28T00:18:29;5.53;;;2.30;;
75220;SDS011;63802;53.232;6.570;2023-02-28T00:20:54;9.00;;;2.70;;
75220;SDS011;63802;53.232;6.570;2023-02-28T00:23:20;8.20;;;2.15;;
75220;SDS011;63802;53.232;6.570;2023-02-28T00:25:48;12.40;;;2.30;;
75220;SDS011;63802;53.232;6.570;2023-02-28T00:28:14;4.82;;;1.90;;
75220;SDS011;63802;53.232;6.570;2023-02-28T00:30:39;8.10;;;2.60;;
75220;SDS011;63802;53.232;6.570;2023-02-28T00:33:05;7.13;;;2.20;;
75220;SDS011;63802;53.232;6.570;2023-02-28T00:35:30;8.55;;;2.33;;
75220;SDS011;63802;53.232;6.570;2023-02-28T00:37:56;5.95;;;2.25;;
75220;SDS011;63802;53.232;6.570;2023-02-28T00:40:21;9.07;;;2.30;;
75220;SDS011;63802;53.232;6.570;2023-02-28T00:42:47;17.65;;;2.88;;
75220;SDS011;63802;53.232;6.570;2023-02-28T00:45:12;4.82;;;1.90;;
75220;SDS011;63802;53.232;6.570;2023-02-28T00:47:41;6.75;;;2.70;;
75220;SDS011;63802;53.232;6.570;2023-02-28T00:50:07;6.45;;;2.47;;
75220;SDS011;63802;53.232;6.570;2023-02-28T00:52:33;4.18;;;2.28;;
75220;SDS011;63802;53.232;6.570;2023-02-28T00:54:58;7.18;;;2.55;;
75220;SDS011;63802;53.232;6.570;2023-02-28T00:57:24;6.13;;;2.30;;
75220;SDS011;63802;53.232;6.570;2023-02-28T00:59:49;5.25;;;2.22;;
75220;SDS011;63802;53.232;6.570;2023-02-28T01:02:15;7.30;;;2.35;;
75220;SDS011;63802;53.232;6.570;2023-02-28T01:04:41;8.70;;;2.55;;
75220;SDS011;63802;53.232;6.570;2023-02-28T01:07:06;7.43;;;2.33;;
75220;SDS011;63802;53.232;6.570;2023-02-28T01:09:31;7.90;;;2.10;;
75220;SDS011;63802;53.232;6.570;2023-02-28T01:11:57;6.90;;;2.67;;
75220;SDS011;63802;53.232;6.570;2023-02-28T01:14:23;6.30;;;1.90;;
75220;SDS011;63802;53.232;6.570;2023-02-28T01:16:48;5.65;;;2.15;;
75220;SDS011;63802;53.232;6.570;2023-02-28T01:19:13;7.97;;;2.20;;
75220;SDS011;63802;53.232;6.570;2023-02-28T01:21:40;5.63;;;2.33;;
75220;SDS011;63802;53.232;6.570;2023-02-28T01:24:05;6.80;;;2.40;;
75220;SDS011;63802;53.232;6.570;2023-02-28T01:26:32;5.22;;;2.22;;
75220;SDS011;63802;53.232;6.570;2023-02-28T01:28:57;4.97;;;2.10;;
75220;SDS011;63802;53.232;6.570;2023-02-28T01:31:23;6.03;;;1.90;;
75220;SDS011;63802;53.232;6.570;2023-02-28T01:33:49;6.07;;;2.25;;
75220;SDS011;63802;53.232;6.570;2023-02-28T01:36:15;6.03;;;2.60;;
75220;SDS011;63802;53.232;6.570;2023-02-28T01:38:45;7.80;;;2.17;;
75220;SDS011;63802;53.232;6.570;2023-02-28T01:41:19;9.20;;;2.40;;
75220;SDS011;63802;53.232;6.570;2023-02-28T01:46:12;5.22;;;2.20;;
75220;SDS011;63802;53.232;6.570;2023-02-28T01:48:46;4.93;;;2.60;;
75220;SDS011;63802;53.232;6.570;2023-02-28T01:51:37;4.13;;;2.10;;
75220;SDS011;63802;53.232;6.570;2023-02-28T01:54:12;10.48;;;2.00;;
75220;SDS011;63802;53.232;6.570;2023-02-28T01:56:49;14.25;;;3.30;;
75220;SDS011;63802;53.232;6.570;2023-02-28T01:59:21;9.88;;;2.67;;
75220;SDS011;63802;53.232;6.570;2023-02-28T02:01:51;4.70;;;1.98;;
75220;SDS011;63802;53.232;6.570;2023-02-28T02:04:18;2.83;;;1.90;;
75220;SDS011;63802;53.232;6.570;2023-02-28T02:06:46;6.50;;;2.22;;
75220;SDS011;63802;53.232;6.570;2023-02-28T02:09:13;5.75;;;2.15;;
75220;SDS011;63802;53.232;6.570;2023-02-28T02:11:39;7.35;;;2.22;;
75220;SDS011;63802;53.232;6.570;2023-02-28T02:14:10;11.45;;;2.13;;
75220;SDS011;63802;53.232;6.570;2023-02-28T02:25:54;6.78;;;2.38;;
75220;SDS011;63802;53.232;6.570;2023-02-28T02:37:02;6.55;;;2.28;;
75220;SDS011;63802;53.232;6.570;2023-02-28T02:39:39;4.18;;;2.13;;
75220;SDS011;63802;53.232;6.570;2023-02-28T02:42:17;5.57;;;2.13;;
75220;SDS011;63802;53.232;6.570;2023-02-28T02:45:06;4.72;;;1.58;;
75220;SDS011;63802;53.232;6.570;2023-02-28T02:47:52;5.68;;;1.60;;
75220;SDS011;63802;53.232;6.570;2023-02-28T02:50:24;6.20;;;1.75;;
75220;SDS011;63802;53.232;6.570;2023-02-28T02:52:59;8.18;;;1.77;;
75220;SDS011;63802;53.232;6.570;2023-02-28T02:55:28;6.32;;;1.90;;
75220;SDS011;63802;53.232;6.570;2023-02-28T02:57:58;6.50;;;2.65;;
75220;SDS011;63802;53.232;6.570;2023-02-28T03:00:32;5.72;;;2.10;;
75220;SDS011;63802;53.232;6.570;2023-02-28T03:03:06;5.35;;;1.80;;
75220;SDS011;63802;53.232;6.570;2023-02-28T03:05:55;7.13;;;1.98;;
75220;SDS011;63802;53.232;6.570;2023-02-28T03:08:22;4.72;;;1.67;;
75220;SDS011;63802;53.232;6.570;2023-02-28T03:10:48;4.28;;;1.65;;
75220;SDS011;63802;53.232;6.570;2023-02-28T03:24:11;8.95;;;2.30;;
75220;SDS011;63802;53.232;6.570;2023-02-28T03:26:42;9.02;;;3.42;;
75220;SDS011;63802;53.232;6.570;2023-02-28T03:32:03;14.48;;;5.80;;
75220;SDS011;63802;53.232;6.570;2023-02-28T03:34:48;13.52;;;5.32;;
75220;SDS011;63802;53.232;6.570;2023-02-28T03:37:22;17.50;;;5.80;;
75220;SDS011;63802;53.232;6.570;2023-02-28T03:39:55;10.82;;;5.43;;
75220;SDS011;63802;53.232;6.570;2023-02-28T03:42:25;11.13;;;5.35;;
75220;SDS011;63802;53.232;6.570;2023-02-28T03:47:26;8.98;;;4.53;;
75220;SDS011;63802;53.232;6.570;2023-02-28T03:50:11;17.15;;;5.93;;
75220;SDS011;63802;53.232;6.570;2023-02-28T03:52:54;11.67;;;5.73;;
75220;SDS011;63802;53.232;6.570;2023-02-28T03:55:42;13.63;;;6.35;;
75220;SDS011;63802;53.232;6.570;2023-02-28T04:00:43;16.17;;;5.95;;
75220;SDS011;63802;53.232;6.570;2023-02-28T04:03:13;13.73;;;6.07;;
75220;SDS011;63802;53.232;6.570;2023-02-28T04:06:00;17.38;;;6.30;;
75220;SDS011;63802;53.232;6.570;2023-02-28T04:08:24;14.55;;;6.32;;
75220;SDS011;63802;53.232;6.570;2023-02-28T04:10:53;15.05;;;6.40;;
75220;SDS011;63802;53.232;6.570;2023-02-28T04:13:28;13.05;;;5.85;;
75220;SDS011;63802;53.232;6.570;2023-02-28T04:15:54;16.55;;;5.60;;
75220;SDS011;63802;53.232;6.570;2023-02-28T04:18:19;16.83;;;5.97;;
75220;SDS011;63802;53.232;6.570;2023-02-28T04:20:44;15.18;;;6.32;;
75220;SDS011;63802;53.232;6.570;2023-02-28T04:23:10;12.90;;;5.63;;
75220;SDS011;63802;53.232;6.570;2023-02-28T04:25:35;14.50;;;6.00;;
75220;SDS011;63802;53.232;6.570;2023-02-28T04:28:01;11.98;;;5.45;;
75220;SDS011;63802;53.232;6.570;2023-02-28T04:30:26;11.70;;;5.25;;
75220;SDS011;63802;53.232;6.570;2023-02-28T04:32:52;11.48;;;5.20;;
75220;SDS011;63802;53.232;6.570;2023-02-28T04:35:17;11.77;;;5.60;;
75220;SDS011;63802;53.232;6.570;2023-02-28T04:37:42;12.85;;;5.22;;
75220;SDS011;63802;53.232;6.570;2023-02-28T04:40:08;13.48;;;5.82;;
75220;SDS011;63802;53.232;6.570;2023-02-28T04:42:34;9.45;;;4.75;;
75220;SDS011;63802;53.232;6.570;2023-02-28T04:45:04;11.13;;;5.20;;
75220;SDS011;63802;53.232;6.570;2023-02-28T04:47:30;12.07;;;5.50;;
75220;SDS011;63802;53.232;6.570;2023-02-28T04:49:55;12.57;;;4.75;;
75220;SDS011;63802;53.232;6.570;2023-02-28T04:52:21;9.52;;;4.57;;
75220;SDS011;63802;53.232;6.570;2023-02-28T04:54:47;9.40;;;4.47;;
75220;SDS011;63802;53.232;6.570;2023-02-28T04:57:12;9.15;;;4.05;;
75220;SDS011;63802;53.232;6.570;2023-02-28T04:59:37;10.05;;;3.97;;
75220;SDS011;63802;53.232;6.570;2023-02-28T05:02:03;10.85;;;4.18;;
75220;SDS011;63802;53.232;6.570;2023-02-28T05:04:34;11.90;;;4.63;;
75220;SDS011;63802;53.232;6.570;2023-02-28T05:07:01;10.10;;;4.22;;
75220;SDS011;63802;53.232;6.570;2023-02-28T05:09:26;7.88;;;3.88;;
75220;SDS011;63802;53.232;6.570;2023-02-28T05:11:53;10.73;;;4.20;;
75220;SDS011;63802;53.232;6.570;2023-02-28T05:14:19;10.25;;;3.72;;
75220;SDS011;63802;53.232;6.570;2023-02-28T05:16:44;8.20;;;4.20;;
75220;SDS011;63802;53.232;6.570;2023-02-28T05:19:09;8.65;;;4.00;;
75220;SDS011;63802;53.232;6.570;2023-02-28T05:21:36;8.57;;;3.65;;
75220;SDS011;63802;53.232;6.570;2023-02-28T05:24:04;11.13;;;4.55;;
75220;SDS011;63802;53.232;6.570;2023-02-28T05:26:40;13.68;;;4.45;;
75220;SDS011;63802;53.232;6.570;2023-02-28T05:29:07;10.10;;;4.40;;
75220;SDS011;63802;53.232;6.570;2023-02-28T05:31:32;10.43;;;4.53;;
75220;SDS011;63802;53.232;6.570;2023-02-28T05:33:58;11.13;;;4.22;;
75220;SDS011;63802;53.232;6.570;2023-02-28T05:36:24;13.73;;;5.30;;
75220;SDS011;63802;53.232;6.570;2023-02-28T05:38:49;11.90;;;4.97;;
75220;SDS011;63802;53.232;6.570;2023-02-28T05:41:16;13.40;;;4.65;;
75220;SDS011;63802;53.232;6.570;2023-02-28T05:43:44;15.02;;;5.20;;
75220;SDS011;63802;53.232;6.570;2023-02-28T05:46:11;11.13;;;4.45;;
75220;SDS011;63802;53.232;6.570;2023-02-28T05:48:38;14.63;;;4.65;;
75220;SDS011;63802;53.232;6.570;2023-02-28T05:51:05;11.02;;;4.30;;
75220;SDS011;63802;53.232;6.570;2023-02-28T05:53:31;10.63;;;4.70;;
75220;SDS011;63802;53.232;6.570;2023-02-28T05:55:58;13.85;;;5.40;;
75220;SDS011;63802;53.232;6.570;2023-02-28T05:58:24;11.73;;;5.00;;
75220;SDS011;63802;53.232;6.570;2023-02-28T06:00:58;17.20;;;5.43;;
75220;SDS011;63802;53.232;6.570;2023-02-28T06:03:24;12.88;;;5.03;;
75220;SDS011;63802;53.232;6.570;2023-02-28T06:05:50;15.88;;;5.72;;
75220;SDS011;63802;53.232;6.570;2023-02-28T06:08:16;13.93;;;5.10;;
75220;SDS011;63802;53.232;6.570;2023-02-28T06:10:45;15.57;;;5.78;;
75220;SDS011;63802;53.232;6.570;2023-02-28T06:13:10;15.88;;;5.68;;
75220;SDS011;63802;53.232;6.570;2023-02-28T06:15:37;14.70;;;5.47;;
75220;SDS011;63802;53.232;6.570;2023-02-28T06:18:03;15.30;;;6.07;;
75220;SDS011;63802;53.232;6.570;2023-02-28T06:20:29;15.10;;;5.65;;
75220;SDS011;63802;53.232;6.570;2023-02-28T06:22:58;15.32;;;6.25;;
75220;SDS011;63802;53.232;6.570;2023-02-28T06:25:25;14.40;;;6.05;;
75220;SDS011;63802;53.232;6.570;2023-02-28T06:27:53;18.77;;;6.07;;
75220;SDS011;63802;53.232;6.570;2023-02-28T06:30:19;15.73;;;6.53;;
75220;SDS011;63802;53.232;6.570;2023-02-28T06:32:48;14.45;;;6.22;;
75220;SDS011;63802;53.232;6.570;2023-02-28T06:35:14;15.15;;;6.10;;
75220;SDS011;63802;53.232;6.570;2023-02-28T06:37:40;15.45;;;5.78;;
75220;SDS011;63802;53.232;6.570;2023-02-28T06:40:05;14.10;;;5.85;;
75220;SDS011;63802;53.232;6.570;2023-02-28T06:42:31;15.40;;;5.82;;
75220;SDS011;63802;53.232;6.570;2023-02-28T06:44:57;15.05;;;6.75;;
75220;SDS011;63802;53.232;6.570;2023-02-28T06:47:23;18.02;;;6.10;;
75220;SDS011;63802;53.232;6.570;2023-02-28T06:49:49;18.15;;;6.28;;
75220;SDS011;63802;53.232;6.570;2023-02-28T06:52:14;14.93;;;6.07;;
75220;SDS011;63802;53.232;6.570;2023-02-28T06:54:40;17.25;;;6.32;;
75220;SDS011;63802;53.232;6.570;2023-02-28T06:57:06;15.95;;;6.13;;
75220;SDS011;63802;53.232;6.570;2023-02-28T06:59:31;13.85;;;6.63;;
75220;SDS011;63802;53.232;6.570;2023-02-28T07:01:57;16.58;;;6.65;;
75220;SDS011;63802;53.232;6.570;2023-02-28T07:04:22;15.00;;;6.72;;
75220;SDS011;63802;53.232;6.570;2023-02-28T07:06:48;17.00;;;6.65;;
75220;SDS011;63802;53.232;6.570;2023-02-28T07:09:14;19.75;;;6.78;;
75220;SDS011;63802;53.232;6.570;2023-02-28T07:11:39;16.08;;;6.68;;
75220;SDS011;63802;53.232;6.570;2023-02-28T07:14:06;18.90;;;7.40;;
75220;SDS011;63802;53.232;6.570;2023-02-28T07:16:31;16.33;;;6.25;;
75220;SDS011;63802;53.232;6.570;2023-02-28T07:18:57;16.83;;;6.65;;
75220;SDS011;63802;53.232;6.570;2023-02-28T07:21:23;18.20;;;7.00;;
75220;SDS011;63802;53.232;6.570;2023-02-28T07:23:49;17.67;;;7.38;;
75220;SDS011;63802;53.232;6.570;2023-02-28T07:26:15;21.65;;;7.10;;
75220;SDS011;63802;53.232;6.570;2023-02-28T07:28:42;19.52;;;7.70;;
75220;SDS011;63802;53.232;6.570;2023-02-28T07:31:09;21.45;;;8.05;;
75220;SDS011;63802;53.232;6.570;2023-02-28T07:33:35;17.50;;;7.47;;
75220;SDS011;63802;53.232;6.570;2023-02-28T07:36:04;20.30;;;7.18;;
75220;SDS011;63802;53.232;6.570;2023-02-28T07:38:35;22.98;;;8.43;;
75220;SDS011;63802;53.232;6.570;2023-02-28T07:41:01;18.77;;;7.80;;
75220;SDS011;63802;53.232;6.570;2023-02-28T07:43:30;21.80;;;7.78;;
75220;SDS011;63802;53.232;6.570;2023-02-28T07:46:00;18.77;;;7.97;;
75220;SDS011;63802;53.232;6.570;2023-02-28T07:48:30;19.58;;;7.75;;
75220;SDS011;63802;53.232;6.570;2023-02-28T07:50:56;17.70;;;7.32;;
75220;SDS011;63802;53.232;6.570;2023-02-28T07:53:23;19.02;;;8.18;;
75220;SDS011;63802;53.232;6.570;2023-02-28T07:55:48;19.15;;;8.30;;
75220;SDS011;63802;53.232;6.570;2023-02-28T07:58:14;19.73;;;7.65;;
75220;SDS011;63802;53.232;6.570;2023-02-28T08:00:40;19.27;;;7.95;;
75220;SDS011;63802;53.232;6.570;2023-02-28T08:03:06;17.83;;;8.05;;
75220;SDS011;63802;53.232;6.570;2023-02-28T08:05:31;18.50;;;7.25;;
75220;SDS011;63802;53.232;6.570;2023-02-28T08:07:57;23.02;;;8.82;;
75220;SDS011;63802;53.232;6.570;2023-02-28T08:10:22;18.95;;;8.13;;
75220;SDS011;63802;53.232;6.570;2023-02-28T08:12:49;17.15;;;7.32;;
75220;SDS011;63802;53.232;6.570;2023-02-28T08:15:15;16.98;;;7.18;;
75220;SDS011;63802;53.232;6.570;2023-02-28T08:17:41;15.27;;;7.10;;
75220;SDS011;63802;53.232;6.570;2023-02-28T08:20:10;15.53;;;7.10;;
75220;SDS011;63802;53.232;6.570;2023-02-28T08:22:36;18.80;;;7.03;;
75220;SDS011;63802;53.232;6.570;2023-02-28T08:25:02;16.70;;;6.90;;
75220;SDS011;63802;53.232;6.570;2023-02-28T08:27:27;16.35;;;7.38;;
75220;SDS011;63802;53.232;6.570;2023-02-28T08:29:53;14.75;;;6.82;;
75220;SDS011;63802;53.232;6.570;2023-02-28T08:32:19;16.95;;;7.20;;
75220;SDS011;63802;53.232;6.570;2023-02-28T08:34:45;13.50;;;6.80;;
75220;SDS011;63802;53.232;6.570;2023-02-28T08:37:13;17.48;;;6.63;;
75220;SDS011;63802;53.232;6.570;2023-02-28T08:39:39;15.60;;;6.75;;
75220;SDS011;63802;53.232;6.570;2023-02-28T08:42:08;13.77;;;6.18;;
75220;SDS011;63802;53.232;6.570;2023-02-28T08:44:34;15.98;;;7.10;;
75220;SDS011;63802;53.232;6.570;2023-02-28T08:47:00;14.25;;;6.70;;
75220;SDS011;63802;53.232;6.570;2023-02-28T08:49:39;13.57;;;6.57;;
75220;SDS011;63802;53.232;6.570;2023-02-28T08:52:07;13.75;;;6.40;;
75220;SDS011;63802;53.232;6.570;2023-02-28T08:54:41;16.80;;;6.63;;
75220;SDS011;63802;53.232;6.570;2023-02-28T08:57:07;13.45;;;6.43;;
75220;SDS011;63802;53.232;6.570;2023-02-28T08:59:32;15.90;;;6.60;;
75220;SDS011;63802;53.232;6.570;2023-02-28T09:01:58;12.57;;;6.47;;
75220;SDS011;63802;53.232;6.570;2023-02-28T09:04:24;14.75;;;6.47;;
75220;SDS011;63802;53.232;6.570;2023-02-28T09:06:50;14.50;;;5.68;;
75220;SDS011;63802;53.232;6.570;2023-02-28T09:09:16;13.00;;;5.47;;
75220;SDS011;63802;53.232;6.570;2023-02-28T09:11:42;12.70;;;6.15;;
75220;SDS011;63802;53.232;6.570;2023-02-28T09:14:08;11.25;;;5.22;;
75220;SDS011;63802;53.232;6.570;2023-02-28T09:16:35;11.85;;;5.57;;
75220;SDS011;63802;53.232;6.570;2023-02-28T09:19:02;12.52;;;5.95;;
75220;SDS011;63802;53.232;6.570;2023-02-28T09:21:27;13.10;;;6.07;;
75220;SDS011;63802;53.232;6.570;2023-02-28T09:23:53;15.07;;;6.90;;
75220;SDS011;63802;53.232;6.570;2023-02-28T09:26:24;14.95;;;6.18;;
75220;SDS011;63802;53.232;6.570;2023-02-28T09:28:55;12.77;;;6.03;;
75220;SDS011;63802;53.232;6.570;2023-02-28T09:31:25;12.57;;;5.90;;
75220;SDS011;63802;53.232;6.570;2023-02-28T09:33:54;11.93;;;6.18;;
75220;SDS011;63802;53.232;6.570;2023-02-28T09:36:24;14.55;;;6.40;;
75220;SDS011;63802;53.232;6.570;2023-02-28T09:38:54;12.88;;;5.90;;
75220;SDS011;63802;53.232;6.570;2023-02-28T09:41:32;13.80;;;5.65;;
75220;SDS011;63802;53.232;6.570;2023-02-28T09:44:15;14.60;;;6.15;;
75220;SDS011;63802;53.232;6.570;2023-02-28T09:46:51;11.65;;;6.22;;
75220;SDS011;63802;53.232;6.570;2023-02-28T09:49:25;13.32;;;6.40;;
75220;SDS011;63802;53.232;6.570;2023-02-28T09:52:02;11.10;;;5.75;;
75220;SDS011;63802;53.232;6.570;2023-02-28T09:54:33;13.55;;;6.65;;
75220;SDS011;63802;53.232;6.570;2023-02-28T10:05:08;14.85;;;6.28;;
75220;SDS011;63802;53.232;6.570;2023-02-28T10:07:42;11.10;;;5.75;;
75220;SDS011;63802;53.232;6.570;2023-02-28T10:10:18;13.90;;;6.10;;
75220;SDS011;63802;53.232;6.570;2023-02-28T10:12:47;11.98;;;5.90;;
75220;SDS011;63802;53.232;6.570;2023-02-28T10:15:18;12.20;;;6.03;;
75220;SDS011;63802;53.232;6.570;2023-02-28T10:17:53;10.32;;;5.60;;
75220;SDS011;63802;53.232;6.570;2023-02-28T10:20:23;11.15;;;5.47;;
75220;SDS011;63802;53.232;6.570;2023-02-28T10:23:09;13.77;;;6.13;;
75220;SDS011;63802;53.232;6.570;2023-02-28T10:25:37;12.68;;;5.93;;
75220;SDS011;63802;53.232;6.570;2023-02-28T10:30:41;12.15;;;5.55;;
75220;SDS011;63802;53.232;6.570;2023-02-28T10:36:04;12.65;;;5.30;;
75220;SDS011;63802;53.232;6.570;2023-02-28T10:38:35;14.63;;;5.68;;
75220;SDS011;63802;53.232;6.570;2023-02-28T10:41:10;12.73;;;5.50;;
75220;SDS011;63802;53.232;6.570;2023-02-28T10:43:42;12.60;;;4.80;;
75220;SDS011;63802;53.232;6.570;2023-02-28T10:51:10;14.20;;;5.03;;
75220;SDS011;63802;53.232;6.570;2023-02-28T10:53:54;11.73;;;5.03;;
75220;SDS011;63802;53.232;6.570;2023-02-28T10:56:22;9.77;;;4.40;;
75220;SDS011;63802;53.232;6.570;2023-02-28T10:59:00;9.45;;;4.70;;
75220;SDS011;63802;53.232;6.570;2023-02-28T11:01:52;10.98;;;4.57;;
75220;SDS011;63802;53.232;6.570;2023-02-28T11:07:06;8.20;;;3.97;;
75220;SDS011;63802;53.232;6.570;2023-02-28T11:09:46;12.85;;;4.32;;
75220;SDS011;63802;53.232;6.570;2023-02-28T11:12:23;9.40;;;4.43;;
75220;SDS011;63802;53.232;6.570;2023-02-28T11:14:55;8.85;;;4.10;;
75220;SDS011;63802;53.232;6.570;2023-02-28T11:17:26;8.80;;;3.83;;
75220;SDS011;63802;53.232;6.570;2023-02-28T11:20:06;9.52;;;4.47;;
75220;SDS011;63802;53.232;6.570;2023-02-28T11:23:02;7.13;;;3.45;;
75220;SDS011;63802;53.232;6.570;2023-02-28T11:25:38;6.22;;;3.15;;
75220;SDS011;63802;53.232;6.570;2023-02-28T11:31:01;5.43;;;3.00;;
75220;SDS011;63802;53.232;6.570;2023-02-28T11:36:21;5.78;;;2.80;;
75220;SDS011;63802;53.232;6.570;2023-02-28T11:38:52;6.60;;;3.10;;
75220;SDS011;63802;53.232;6.570;2023-02-28T11:46:48;9.05;;;3.95;;
75220;SDS011;63802;53.232;6.570;2023-02-28T11:49:45;9.27;;;3.83;;
75220;SDS011;63802;53.232;6.570;2023-02-28T11:52:33;7.18;;;3.80;;
75220;SDS011;63802;53.232;6.570;2023-02-28T11:58:01;8.23;;;4.35;;
75220;SDS011;63802;53.232;6.570;2023-02-28T12:10:28;7.68;;;4.07;;
75220;SDS011;63802;53.232;6.570;2023-02-28T12:13:16;7.18;;;3.45;;
75220;SDS011;63802;53.232;6.570;2023-02-28T12:15:53;10.50;;;3.97;;
75220;SDS011;63802;53.232;6.570;2023-02-28T12:23:51;8.23;;;3.85;;
75220;SDS011;63802;53.232;6.570;2023-02-28T12:26:33;6.97;;;3.42;;
75220;SDS011;63802;53.232;6.570;2023-02-28T12:29:04;7.68;;;3.67;;
75220;SDS011;63802;53.232;6.570;2023-02-28T12:31:36;9.02;;;3.97;;
75220;SDS011;63802;53.232;6.570;2023-02-28T12:34:15;8.63;;;3.70;;
75220;SDS011;63802;53.232;6.570;2023-02-28T12:36:46;7.85;;;3.90;;
75220;SDS011;63802;53.232;6.570;2023-02-28T12:39:23;6.72;;;4.18;;
75220;SDS011;63802;53.232;6.570;2023-02-28T12:42:04;8.10;;;3.45;;
75220;SDS011;63802;53.232;6.570;2023-02-28T12:44:47;11.13;;;4.13;;
75220;SDS011;63802;53.232;6.570;2023-02-28T12:47:20;7.47;;;3.83;;
75220;SDS011;63802;53.232;6.570;2023-02-28T12:49:54;6.88;;;3.60;;
75220;SDS011;63802;53.232;6.570;2023-02-28T12:52:37;11.02;;;4.15;;
75220;SDS011;63802;53.232;6.570;2023-02-28T12:55:15;9.60;;;4.30;;
75220;SDS011;63802;53.232;6.570;2023-02-28T13:07:05;9.35;;;3.58;;
75220;SDS011;63802;53.232;6.570;2023-02-28T13:09:48;7.90;;;4.05;;
75220;SDS011;63802;53.232;6.570;2023-02-28T13:12:22;8.43;;;3.72;;
75220;SDS011;63802;53.232;6.570;2023-02-28T13:15:00;9.20;;;3.75;;
75220;SDS011;63802;53.232;6.570;2023-02-28T13:17:50;7.38;;;3.85;;
75220;SDS011;63802;53.232;6.570;2023-02-28T13:23:01;9.32;;;4.65;;
75220;SDS011;63802;53.232;6.570;2023-02-28T13:25:51;11.50;;;4.40;;
75220;SDS011;63802;53.232;6.570;2023-02-28T13:31:18;9.90;;;4.10;;
75220;SDS011;63802;53.232;6.570;2023-02-28T13:36:32;10.98;;;4.47;;
75220;SDS011;63802;53.232;6.570;2023-02-28T13:39:02;9.55;;;4.40;;
75220;SDS011;63802;53.232;6.570;2023-02-28T13:41:49;12.13;;;4.90;;
75220;SDS011;63802;53.232;6.570;2023-02-28T14:00:44;7.63;;;4.20;;
75220;SDS011;63802;53.232;6.570;2023-02-28T14:09:59;8.95;;;4.82;;
75220;SDS011;63802;53.232;6.570;2023-02-28T14:13:14;9.75;;;4.57;;
75220;SDS011;63802;53.232;6.570;2023-02-28T14:16:20;8.63;;;4.80;;
75220;SDS011;63802;53.232;6.570;2023-02-28T14:18:50;8.52;;;4.90;;
75220;SDS011;63802;53.232;6.570;2023-02-28T14:27:24;10.32;;;5.07;;
75220;SDS011;63802;53.232;6.570;2023-02-28T14:30:11;10.98;;;5.53;;
75220;SDS011;63802;53.232;6.570;2023-02-28T14:33:01;9.85;;;5.75;;
75220;SDS011;63802;53.232;6.570;2023-02-28T14:38:55;12.32;;;5.03;;
75220;SDS011;63802;53.232;6.570;2023-02-28T14:41:32;11.45;;;5.10;;
75220;SDS011;63802;53.232;6.570;2023-02-28T14:47:02;8.25;;;4.70;;
75220;SDS011;63802;53.232;6.570;2023-02-28T14:49:43;9.95;;;4.40;;
75220;SDS011;63802;53.232;6.570;2023-02-28T14:55:17;16.45;;;5.22;;
75220;SDS011;63802;53.232;6.570;2023-02-28T14:57:56;14.25;;;5.20;;
75220;SDS011;63802;53.232;6.570;2023-02-28T15:00:46;8.98;;;4.70;;
75220;SDS011;63802;53.232;6.570;2023-02-28T15:03:18;10.95;;;6.05;;
75220;SDS011;63802;53.232;6.570;2023-02-28T15:05:51;11.07;;;6.25;;
75220;SDS011;63802;53.232;6.570;2023-02-28T15:08:28;14.65;;;5.80;;
75220;SDS011;63802;53.232;6.570;2023-02-28T15:11:02;9.98;;;6.13;;
75220;SDS011;63802;53.232;6.570;2023-02-28T15:13:53;14.25;;;5.63;;
75220;SDS011;63802;53.232;6.570;2023-02-28T15:16:31;11.05;;;5.38;;
75220;SDS011;63802;53.232;6.570;2023-02-28T15:21:44;10.18;;;4.70;;
75220;SDS011;63802;53.232;6.570;2023-02-28T15:24:24;10.07;;;5.15;;
75220;SDS011;63802;53.232;6.570;2023-02-28T15:26:59;10.48;;;5.35;;
75220;SDS011;63802;53.232;6.570;2023-02-28T15:29:33;11.15;;;5.20;;
75220;SDS011;63802;53.232;6.570;2023-02-28T15:32:30;10.57;;;5.10;;
75220;SDS011;63802;53.232;6.570;2023-02-28T15:34:59;10.43;;;5.07;;
75220;SDS011;63802;53.232;6.570;2023-02-28T15:38:04;9.32;;;4.80;;
75220;SDS011;63802;53.232;6.570;2023-02-28T15:40:58;8.67;;;4.77;;
75220;SDS011;63802;53.232;6.570;2023-02-28T15:43:28;8.07;;;4.85;;
75220;SDS011;63802;53.232;6.570;2023-02-28T15:54:01;11.90;;;5.05;;
75220;SDS011;63802;53.232;6.570;2023-02-28T15:56:44;10.07;;;5.38;;
75220;SDS011;63802;53.232;6.570;2023-02-28T15:59:28;10.35;;;5.15;;
75220;SDS011;63802;53.232;6.570;2023-02-28T16:07:05;11.13;;;5.53;;
75220;SDS011;63802;53.232;6.570;2023-02-28T16:09:47;10.95;;;5.00;;
75220;SDS011;63802;53.232;6.570;2023-02-28T16:12:14;9.38;;;5.50;;
75220;SDS011;63802;53.232;6.570;2023-02-28T16:14:53;11.82;;;5.88;;
75220;SDS011;63802;53.232;6.570;2023-02-28T16:17:35;10.68;;;5.50;;
75220;SDS011;63802;53.232;6.570;2023-02-28T16:22:43;12.05;;;5.25;;
75220;SDS011;63802;53.232;6.570;2023-02-28T16:25:33;10.95;;;5.20;;
75220;SDS011;63802;53.232;6.570;2023-02-28T16:28:10;13.93;;;6.07;;
75220;SDS011;63802;53.232;6.570;2023-02-28T16:31:06;9.43;;;5.85;;
75220;SDS011;63802;53.232;6.570;2023-02-28T16:33:35;12.32;;;5.65;;
75220;SDS011;63802;53.232;6.570;2023-02-28T16:36:02;10.43;;;5.78;;
75220;SDS011;63802;53.232;6.570;2023-02-28T16:44:20;11.60;;;5.80;;
75220;SDS011;63802;53.232;6.570;2023-02-28T16:46:59;15.82;;;5.97;;
75220;SDS011;63802;53.232;6.570;2023-02-28T16:49:27;11.20;;;5.43;;
75220;SDS011;63802;53.232;6.570;2023-02-28T16:51:55;10.38;;;5.05;;
75220;SDS011;63802;53.232;6.570;2023-02-28T16:54:21;11.32;;;6.40;;
75220;SDS011;63802;53.232;6.570;2023-02-28T16:56:47;11.82;;;6.00;;
75220;SDS011;63802;53.232;6.570;2023-02-28T16:59:15;10.35;;;5.20;;
75220;SDS011;63802;53.232;6.570;2023-02-28T17:01:44;11.68;;;5.80;;
75220;SDS011;63802;53.232;6.570;2023-02-28T17:04:10;9.88;;;5.22;;
75220;SDS011;63802;53.232;6.570;2023-02-28T17:06:36;12.00;;;5.90;;
75220;SDS011;63802;53.232;6.570;2023-02-28T17:09:02;10.40;;;5.40;;
75220;SDS011;63802;53.232;6.570;2023-02-28T17:11:28;12.65;;;5.72;;
75220;SDS011;63802;53.232;6.570;2023-02-28T17:13:53;14.57;;;6.38;;
75220;SDS011;63802;53.232;6.570;2023-02-28T17:16:23;13.40;;;6.40;;
75220;SDS011;63802;53.232;6.570;2023-02-28T17:18:53;14.23;;;5.80;;
75220;SDS011;63802;53.232;6.570;2023-02-28T17:21:21;11.38;;;6.30;;
75220;SDS011;63802;53.232;6.570;2023-02-28T17:23:47;10.55;;;5.65;;
75220;SDS011;63802;53.232;6.570;2023-02-28T17:26:13;10.70;;;5.97;;
75220;SDS011;63802;53.232;6.570;2023-02-28T17:28:42;13.13;;;5.97;;
75220;SDS011;63802;53.232;6.570;2023-02-28T17:31:08;10.63;;;5.70;;
75220;SDS011;63802;53.232;6.570;2023-02-28T17:33:34;12.70;;;5.90;;
75220;SDS011;63802;53.232;6.570;2023-02-28T17:36:00;14.70;;;6.60;;
75220;SDS011;63802;53.232;6.570;2023-02-28T17:38:26;12.98;;;6.43;;
75220;SDS011;63802;53.232;6.570;2023-02-28T17:40:52;10.43;;;5.90;;
75220;SDS011;63802;53.232;6.570;2023-02-28T17:43:22;16.10;;;6.40;;
75220;SDS011;63802;53.232;6.570;2023-02-28T17:45:48;13.05;;;5.70;;
75220;SDS011;63802;53.232;6.570;2023-02-28T17:48:14;11.90;;;5.78;;
75220;SDS011;63802;53.232;6.570;2023-02-28T17:50:39;15.57;;;6.78;;